createdAt,value
2018-07-22T00:00:25.565Z,100639.33
2018-07-22T00:03:31.230Z,100638.98
2018-07-22T00:06:36.762Z,100632.27
2018-07-22T00:09:43.533Z,100634.66
2018-07-22T00:12:50.345Z,100624.02
2018-07-22T00:15:56.054Z,100630.17
2018-07-22T00:19:00.945Z,100626.88
2018-07-22T00:22:05.827Z,100625.23
2018-07-22T00:25:11.407Z,100627.50
2018-07-22T00:28:17.626Z,100625.38
2018-07-22T00:31:23.638Z,100625.98
2018-07-22T00:34:29.442Z,100627.77
2018-07-22T00:37:34.374Z,100623.17
2018-07-22T00:40:40.247Z,100624.34
2018-07-22T00:43:45.306Z,100622.22
2018-07-22T00:46:50.577Z,100621.73
2018-07-22T00:49:56.429Z,100617.97
2018-07-22T00:53:01.335Z,100619.13
2018-07-22T00:56:06.580Z,100619.61
2018-07-22T00:59:11.466Z,100613.69
2018-07-22T01:02:16.372Z,100611.22
2018-07-22T01:05:21.697Z,100612.86
2018-07-22T01:08:26.626Z,100612.17
2018-07-22T01:11:32.448Z,100611.01
2018-07-22T01:14:37.870Z,100610.19
2018-07-22T01:17:42.751Z,100608.54
2018-07-22T01:20:48.791Z,100608.33
2018-07-22T01:23:53.696Z,100604.55
2018-07-22T01:26:59.506Z,100600.75
2018-07-22T01:30:06.484Z,100602.80
2018-07-22T01:33:12.110Z,100607.66
2018-07-22T01:36:17.955Z,100604.02
2018-07-22T01:39:22.829Z,100606.41
2018-07-22T01:42:27.750Z,100604.87
2018-07-22T01:45:33.534Z,100605.13
2018-07-22T01:48:38.968Z,100598.07
2018-07-22T01:51:43.872Z,100595.20
2018-07-22T01:54:49.692Z,100596.76
2018-07-22T01:57:54.561Z,100597.37
2018-07-22T02:01:00.193Z,100600.23
2018-07-22T02:04:05.543Z,100601.77
2018-07-22T02:07:11.355Z,100591.62
2018-07-22T02:10:16.270Z,100589.77
2018-07-22T02:13:21.186Z,100592.15
2018-07-22T02:16:26.975Z,100589.44
2018-07-22T02:19:32.737Z,100590.04
2018-07-22T02:22:38.550Z,100583.45
2018-07-22T02:25:45.696Z,100582.38
2018-07-22T02:28:50.858Z,100585.25
2018-07-22T02:31:56.667Z,100583.86
2018-07-22T02:35:02.567Z,100581.87
2018-07-22T02:38:08.132Z,100585.04
2018-07-22T02:41:14.063Z,100585.52
2018-07-22T02:44:19.886Z,100581.05
2018-07-22T02:47:24.783Z,100575.64
2018-07-22T02:50:30.630Z,100582.27
2018-07-22T02:53:35.512Z,100576.37
2018-07-22T02:56:41.138Z,100571.05
2018-07-22T02:59:46.032Z,100573.91
2018-07-22T03:02:51.859Z,100574.86
2018-07-22T03:05:57.156Z,100574.17
2018-07-22T03:09:02.168Z,100572.97
2018-07-22T03:12:07.428Z,100574.73
2018-07-22T03:15:12.349Z,100571.70
2018-07-22T03:18:17.572Z,100566.16
2018-07-22T03:21:22.465Z,100570.19
2018-07-22T03:24:27.380Z,100576.45
2018-07-22T03:27:34.193Z,100572.78
2018-07-22T03:30:39.690Z,100576.69
2018-07-22T03:33:44.567Z,100580.70
2018-07-22T03:36:51.735Z,100570.22
2018-07-22T03:39:56.619Z,100577.54
2018-07-22T03:43:01.513Z,100572.59
2018-07-22T03:46:07.344Z,100568.92
2018-07-22T03:49:12.763Z,100567.28
2018-07-22T03:52:18.914Z,100563.86
2018-07-22T03:55:23.795Z,100566.20
2018-07-22T03:58:29.628Z,100564.91
2018-07-22T04:01:35.971Z,100565.50
2018-07-22T04:04:40.897Z,100565.25
2018-07-22T04:07:45.787Z,100561.73
2018-07-22T04:10:51.426Z,100567.62
2018-07-22T04:13:56.323Z,100559.48
2018-07-22T04:17:02.261Z,100563.86
2018-07-22T04:20:07.490Z,100558.76
2018-07-22T04:23:13.635Z,100555.11
2018-07-22T04:26:19.420Z,100553.56
2018-07-22T04:29:24.945Z,100551.70
2018-07-22T04:32:30.745Z,100548.50
2018-07-22T04:35:35.611Z,100546.25
2018-07-22T04:38:40.535Z,100545.77
2018-07-22T04:41:45.445Z,100544.03
2018-07-22T04:44:51.319Z,100546.97
2018-07-22T04:47:56.824Z,100542.60
2018-07-22T04:51:02.715Z,100547.54
2018-07-22T04:54:09.171Z,100557.93
2018-07-22T04:57:16.167Z,100558.28
2018-07-22T05:00:21.776Z,100559.92
2018-07-22T05:03:27.912Z,100563.70
2018-07-22T05:06:33.764Z,100561.31
2018-07-22T05:09:38.682Z,100559.92
2018-07-22T05:12:43.879Z,100572.44
2018-07-22T05:15:51.062Z,100567.46
2018-07-22T05:18:56.729Z,100564.73
2018-07-22T05:22:01.616Z,100568.85
2018-07-22T05:25:08.457Z,100574.27
2018-07-22T05:28:14.032Z,100578.28
2018-07-22T05:31:21.260Z,100586.77
2018-07-22T05:34:27.016Z,100590.41
2018-07-22T05:37:32.043Z,100587.11
2018-07-22T05:40:37.971Z,100585.08
2018-07-22T05:43:43.923Z,100585.52
2018-07-22T05:46:49.475Z,100593.91
2018-07-22T05:49:54.389Z,100590.09
2018-07-22T05:52:59.477Z,100598.70
2018-07-22T05:56:04.390Z,100596.67
2018-07-22T05:59:10.215Z,100601.83
2018-07-22T06:02:16.021Z,100603.94
2018-07-22T06:05:21.441Z,100599.89
2018-07-22T06:08:26.823Z,100599.02
2018-07-22T06:11:31.733Z,100589.45
2018-07-22T06:14:37.348Z,100592.69
2018-07-22T06:17:42.277Z,100594.44
2018-07-22T06:20:48.216Z,100596.03
2018-07-22T06:23:53.768Z,100599.43
2018-07-22T06:26:58.704Z,100599.37
2018-07-22T06:30:03.848Z,100602.77
2018-07-22T06:33:09.707Z,100604.87
2018-07-22T06:36:15.271Z,100604.80
2018-07-22T06:39:21.093Z,100597.89
2018-07-22T06:42:25.979Z,100596.08
2018-07-22T06:45:32.882Z,100598.17
2018-07-22T06:48:37.912Z,100595.36
2018-07-22T06:51:42.819Z,100598.27
2018-07-22T06:54:47.991Z,100597.61
2018-07-22T06:57:53.840Z,100599.22
2018-07-22T07:01:00.160Z,100601.64
2018-07-22T07:04:05.626Z,100595.25
2018-07-22T07:07:12.757Z,100604.19
2018-07-22T07:10:18.720Z,100604.00
2018-07-22T07:13:23.628Z,100603.30
2018-07-22T07:16:30.491Z,100604.89
2018-07-22T07:19:35.393Z,100608.27
2018-07-22T07:22:41.221Z,100613.11
2018-07-22T07:25:47.032Z,100612.78
2018-07-22T07:28:52.853Z,100615.52
2018-07-22T07:31:58.854Z,100607.83
2018-07-22T07:35:03.806Z,100607.38
2018-07-22T07:38:09.067Z,100616.46
2018-07-22T07:41:14.008Z,100621.41
2018-07-22T07:44:20.086Z,100617.80
2018-07-22T07:47:25.900Z,100621.73
2018-07-22T07:50:31.308Z,100624.02
2018-07-22T07:53:37.143Z,100633.17
2018-07-22T07:56:43.047Z,100631.89
2018-07-22T07:59:47.934Z,100630.76
2018-07-22T08:02:53.868Z,100635.97
2018-07-22T08:05:59.751Z,100636.09
2018-07-22T08:09:07.128Z,100640.95
2018-07-22T08:12:12.670Z,100635.51
2018-07-22T08:15:18.337Z,100637.11
2018-07-22T08:18:24.456Z,100643.42
2018-07-22T08:21:29.345Z,100645.14
2018-07-22T08:24:35.291Z,100650.45
2018-07-22T08:27:40.184Z,100651.47
2018-07-22T08:30:46.093Z,100655.46
2018-07-22T08:33:50.976Z,100656.35
2018-07-22T08:36:56.647Z,100658.19
2018-07-22T08:40:02.831Z,100651.38
2018-07-22T08:43:09.587Z,100651.13
2018-07-22T08:46:15.174Z,100658.39
2018-07-22T08:49:20.978Z,100655.47
2018-07-22T08:52:26.814Z,100655.68
2018-07-22T08:55:32.522Z,100651.31
2018-07-22T08:58:39.237Z,100661.64
2018-07-22T09:01:44.152Z,100662.84
2018-07-22T09:04:50.155Z,100664.52
2018-07-22T09:07:56.703Z,100662.59
2018-07-22T09:11:01.980Z,100672.33
2018-07-22T09:14:08.372Z,100668.27
2018-07-22T09:17:13.251Z,100672.06
2018-07-22T09:20:18.147Z,100678.48
2018-07-22T09:23:23.015Z,100676.53
2018-07-22T09:26:28.423Z,100677.20
2018-07-22T09:29:33.307Z,100679.64
2018-07-22T09:32:38.627Z,100681.84
2018-07-22T09:35:44.297Z,100684.77
2018-07-22T09:38:49.649Z,100688.37
2018-07-22T09:41:55.148Z,100691.66
2018-07-22T09:45:01.463Z,100686.55
2018-07-22T09:48:06.374Z,100690.64
2018-07-22T09:51:12.643Z,100692.31
2018-07-22T09:54:17.889Z,100691.45
2018-07-22T09:57:22.803Z,100694.36
2018-07-22T10:00:33.374Z,100692.51
2018-07-22T10:03:38.783Z,100687.34
2018-07-22T10:06:45.239Z,100691.58
2018-07-22T10:09:51.216Z,100688.05
2018-07-22T10:12:57.062Z,100686.84
2018-07-22T10:16:01.936Z,100682.62
2018-07-22T10:19:06.840Z,100682.45
2018-07-22T10:22:11.991Z,100689.70
2018-07-22T10:25:17.363Z,100690.06
2018-07-22T10:28:22.291Z,100697.46
2018-07-22T10:31:27.188Z,100699.09
2018-07-22T10:34:32.485Z,100690.34
2018-07-22T10:37:38.347Z,100695.42
2018-07-22T10:40:43.986Z,100691.07
2018-07-22T10:43:49.994Z,100700.91
2018-07-22T10:46:55.228Z,100696.92
2018-07-22T10:50:00.468Z,100697.76
2018-07-22T10:53:06.216Z,100693.91
2018-07-22T10:56:12.072Z,100699.79
2018-07-22T10:59:17.321Z,100694.61
2018-07-22T11:02:22.980Z,100690.46
2018-07-22T11:05:28.811Z,100692.36
2018-07-22T11:08:34.654Z,100690.66
2018-07-22T11:11:40.605Z,100694.09
2018-07-22T11:14:46.171Z,100699.45
2018-07-22T11:17:52.437Z,100697.44
2018-07-22T11:20:58.742Z,100692.47
2018-07-22T11:24:04.824Z,100692.26
2018-07-22T11:27:09.716Z,100694.87
2018-07-22T11:30:15.653Z,100691.55
2018-07-22T11:33:20.519Z,100689.35
2018-07-22T11:36:27.497Z,100691.78
2018-07-22T11:39:33.202Z,100695.05
2018-07-22T11:42:39.599Z,100694.17
2018-07-22T11:45:46.319Z,100702.21
2018-07-22T11:48:51.573Z,100704.82
2018-07-22T11:51:57.784Z,100706.58
2018-07-22T11:55:02.657Z,100701.75
2018-07-22T11:58:07.689Z,100703.54
2018-07-22T12:01:13.525Z,100704.17
2018-07-22T12:04:18.391Z,100708.44
2018-07-22T12:07:24.509Z,100694.56
2018-07-22T12:10:29.813Z,100691.73
2018-07-22T12:13:34.700Z,100692.52
2018-07-22T12:16:40.492Z,100690.83
2018-07-22T12:19:45.403Z,100693.91
2018-07-22T12:22:50.787Z,100700.28
2018-07-22T12:25:56.688Z,100697.30
2018-07-22T12:29:02.578Z,100696.91
2018-07-22T12:32:08.528Z,100694.55
2018-07-22T12:35:14.137Z,100694.36
2018-07-22T12:38:20.155Z,100699.88
2018-07-22T12:41:26.076Z,100696.70
2018-07-22T12:44:30.976Z,100702.92
2018-07-22T12:47:36.587Z,100698.89
2018-07-22T12:50:41.911Z,100700.87
2018-07-22T12:53:47.688Z,100699.48
2018-07-22T12:56:53.733Z,100704.87
2018-07-22T12:59:58.599Z,100701.55
2018-07-22T13:03:04.258Z,100705.16
2018-07-22T13:06:10.556Z,100699.48
2018-07-22T13:09:16.329Z,100701.23
2018-07-22T13:12:21.299Z,100704.34
2018-07-22T13:15:27.560Z,100704.27
2018-07-22T13:18:34.308Z,100708.47
2018-07-22T13:21:39.186Z,100711.59
2018-07-22T13:24:44.985Z,100704.92
2018-07-22T13:27:50.798Z,100719.25
2018-07-22T13:30:56.674Z,100704.22
2018-07-22T13:34:01.643Z,100711.79
2018-07-22T13:37:07.134Z,100708.64
2018-07-22T13:40:12.860Z,100712.09
2018-07-22T13:43:17.739Z,100717.19
2018-07-22T13:46:22.640Z,100719.83
2018-07-22T13:49:28.448Z,100716.18
2018-07-22T13:52:33.569Z,100726.36
2018-07-22T13:55:38.460Z,100731.25
2018-07-22T13:58:44.439Z,100738.83
2018-07-22T14:01:50.221Z,100729.69
2018-07-22T14:04:55.095Z,100730.00
2018-07-22T14:08:00.880Z,100735.36
2018-07-22T14:11:06.581Z,100749.58
2018-07-22T14:14:12.417Z,100737.70
2018-07-22T14:17:17.650Z,100746.25
2018-07-22T14:20:22.547Z,100745.12
2018-07-22T14:23:27.957Z,100741.16
2018-07-22T14:26:33.467Z,100746.55
2018-07-22T14:29:39.736Z,100744.11
2018-07-22T14:32:44.617Z,100749.58
2018-07-22T14:35:50.404Z,100753.71
2018-07-22T14:38:55.620Z,100754.30
2018-07-22T14:42:00.492Z,100752.66
2018-07-22T14:45:07.792Z,100763.23
2018-07-22T14:48:12.980Z,100758.13
2018-07-22T14:51:19.095Z,100757.62
2018-07-22T14:54:25.184Z,100758.83
2018-07-22T14:57:30.583Z,100759.96
2018-07-22T15:00:35.794Z,100767.89
2018-07-22T15:03:41.350Z,100768.82
2018-07-22T15:06:48.282Z,100784.59
2018-07-22T15:09:54.088Z,100772.91
2018-07-22T15:12:58.973Z,100784.59
2018-07-22T15:16:04.944Z,100789.02
2018-07-22T15:19:10.316Z,100786.69
2018-07-22T15:22:15.495Z,100791.28
2018-07-22T15:25:20.748Z,100796.99
2018-07-22T15:28:26.450Z,100807.06
2018-07-22T15:31:32.594Z,100808.57
2018-07-22T15:34:38.149Z,100812.92
2018-07-22T15:37:43.987Z,100814.13
2018-07-22T15:40:50.586Z,100808.22
2018-07-22T15:43:56.241Z,100817.31
2018-07-22T15:47:01.432Z,100816.37
2018-07-22T15:50:06.321Z,100818.20
2018-07-22T15:53:13.937Z,100821.10
2018-07-22T15:56:18.829Z,100828.25
2018-07-22T15:59:24.657Z,100821.40
2018-07-22T16:02:30.571Z,100828.01
2018-07-22T16:05:36.067Z,100825.00
2018-07-22T16:08:42.891Z,100827.80
2018-07-22T16:11:47.756Z,100826.92
2018-07-22T16:14:53.203Z,100829.28
2018-07-22T16:17:58.433Z,100826.58
2018-07-22T16:21:03.322Z,100823.33
2018-07-22T16:24:08.208Z,100831.69
2018-07-22T16:27:14.997Z,100830.95
2018-07-22T16:30:21.007Z,100825.08
2018-07-22T16:33:26.219Z,100836.53
2018-07-22T16:36:31.125Z,100840.75
2018-07-22T16:39:36.003Z,100841.33
2018-07-22T16:42:41.431Z,100841.58
2018-07-22T16:45:46.331Z,100843.16
2018-07-22T16:48:52.106Z,100847.22
2018-07-22T16:51:57.900Z,100839.69
2018-07-22T16:55:02.793Z,100842.06
2018-07-22T16:58:07.668Z,100837.84
2018-07-22T17:01:12.617Z,100841.85
2018-07-22T17:04:18.431Z,100844.71
2018-07-22T17:07:24.320Z,100833.41
2018-07-22T17:10:30.360Z,100834.94
2018-07-22T17:13:36.273Z,100841.75
2018-07-22T17:16:42.191Z,100835.27
2018-07-22T17:19:47.399Z,100841.20
2018-07-22T17:22:53.209Z,100838.95
2018-07-22T17:25:59.184Z,100854.09
2018-07-22T17:29:06.010Z,100855.75
2018-07-22T17:32:11.689Z,100847.23
2018-07-22T17:35:17.487Z,100856.48
2018-07-22T17:38:22.888Z,100857.78
2018-07-22T17:41:27.807Z,100860.27
2018-07-22T17:44:34.517Z,100855.83
2018-07-22T17:47:40.287Z,100858.99
2018-07-22T17:50:47.096Z,100867.37
2018-07-22T17:53:52.860Z,100866.05
2018-07-22T17:56:59.703Z,100871.30
2018-07-22T18:00:04.933Z,100866.89
2018-07-22T18:03:21.268Z,100864.22
2018-07-22T18:06:27.426Z,100864.03
2018-07-22T18:09:32.611Z,100865.00
2018-07-22T18:12:38.399Z,100868.95
2018-07-22T18:15:44.832Z,100867.13
2018-07-22T18:18:51.136Z,100867.42
2018-07-22T18:21:57.806Z,100870.71
2018-07-22T18:25:03.955Z,100869.53
2018-07-22T18:28:10.814Z,100880.66
2018-07-22T18:31:16.852Z,100877.66
2018-07-22T18:34:22.199Z,100882.55
2018-07-22T18:37:29.839Z,100879.55
2018-07-22T18:40:37.359Z,100876.88
2018-07-22T18:43:46.748Z,100879.45
2018-07-22T18:46:53.432Z,100893.85
2018-07-22T18:49:59.455Z,100888.55
2018-07-22T18:53:06.244Z,100896.19
2018-07-22T18:56:13.443Z,100901.03
2018-07-22T18:59:19.316Z,100892.25
2018-07-22T19:02:27.831Z,100893.85
2018-07-22T19:05:33.040Z,100891.16
2018-07-22T19:08:38.128Z,100889.78
2018-07-22T19:11:43.345Z,100902.02
2018-07-22T19:14:48.579Z,100896.69
2018-07-22T19:17:55.960Z,100902.66
2018-07-22T19:21:02.039Z,100904.38
2018-07-22T19:24:08.480Z,100903.50
2018-07-22T19:27:14.768Z,100903.52
2018-07-22T19:30:20.684Z,100904.58
2018-07-22T19:33:26.684Z,100913.98
2018-07-22T19:36:33.552Z,100909.66
2018-07-22T19:39:39.571Z,100912.50
2018-07-22T19:42:46.165Z,100924.17
2018-07-22T19:45:52.063Z,100927.53
2018-07-22T19:48:58.065Z,100927.27
2018-07-22T19:52:03.980Z,100932.72
2018-07-22T19:55:10.046Z,100935.73
2018-07-22T19:58:16.402Z,100929.33
2018-07-22T20:01:23.635Z,100934.35
2018-07-22T20:04:30.774Z,100934.11
2018-07-22T20:07:36.337Z,100938.31
2018-07-22T20:10:42.474Z,100941.47
2018-07-22T20:13:48.383Z,100941.91
2018-07-22T20:16:54.533Z,100941.42
2018-07-22T20:20:01.479Z,100945.69
2018-07-22T20:23:07.121Z,100942.67
2018-07-22T20:26:14.380Z,100948.44
2018-07-22T20:29:20.753Z,100949.22
2018-07-22T20:32:26.909Z,100955.49
2018-07-22T20:35:32.110Z,100963.85
2018-07-22T20:38:37.286Z,100959.78
2018-07-22T20:41:44.490Z,100973.39
2018-07-22T20:44:50.607Z,100976.31
2018-07-22T20:47:55.862Z,100974.60
2018-07-22T20:51:01.272Z,100975.25
2018-07-22T20:54:07.460Z,100974.39
2018-07-22T20:57:12.666Z,100979.99
2018-07-22T21:00:18.862Z,100984.38
2018-07-22T21:03:24.486Z,100987.14
2018-07-22T21:06:31.043Z,100990.58
2018-07-22T21:09:37.131Z,100993.16
2018-07-22T21:12:54.663Z,100999.35
2018-07-22T21:15:59.610Z,100988.12
2018-07-22T21:19:05.123Z,100994.69
2018-07-22T21:22:11.335Z,100994.02
2018-07-22T21:25:20.326Z,100993.84
2018-07-22T21:28:37.677Z,100990.43
2018-07-22T21:31:50.681Z,100994.96
2018-07-22T21:35:05.447Z,100996.78
2018-07-22T21:38:12.338Z,100994.45
2018-07-22T21:41:18.415Z,101001.70
2018-07-22T21:44:23.568Z,100993.07
2018-07-22T21:47:42.288Z,101002.54
2018-07-22T21:50:58.250Z,100997.02
2018-07-22T21:54:05.495Z,100996.80
2018-07-22T21:57:22.077Z,100999.52
2018-07-22T22:00:38.389Z,100997.17
2018-07-22T22:03:47.056Z,100997.42
2018-07-22T22:07:02.829Z,100999.80
2018-07-22T22:10:08.640Z,101003.61
2018-07-22T22:13:14.335Z,101004.67
2018-07-22T22:16:20.328Z,101009.16
2018-07-22T22:19:26.505Z,101013.09
2018-07-22T22:22:31.744Z,101013.55
2018-07-22T22:25:36.884Z,101012.97
2018-07-22T22:28:42.082Z,101012.84
2018-07-22T22:31:49.111Z,101007.52
2018-07-22T22:34:55.342Z,101010.08
2018-07-22T22:38:00.851Z,101010.34
2018-07-22T22:41:07.398Z,101014.71
2018-07-22T22:44:13.179Z,101010.44
2018-07-22T22:47:19.316Z,101015.17
2018-07-22T22:50:24.458Z,101014.20
2018-07-22T22:53:29.620Z,101007.59
2018-07-22T22:56:34.811Z,101014.89
2018-07-22T22:59:40.215Z,101010.17
2018-07-22T23:02:46.442Z,101013.59
2018-07-22T23:05:51.623Z,101014.05
2018-07-22T23:08:57.731Z,101015.11
2018-07-22T23:12:03.622Z,101011.41
2018-07-22T23:15:08.804Z,101013.42
2018-07-22T23:18:13.955Z,101007.60
2018-07-22T23:21:19.442Z,101008.20
2018-07-22T23:24:25.415Z,101008.67
2018-07-22T23:27:31.547Z,101010.99
2018-07-22T23:30:36.687Z,101015.70
2018-07-22T23:33:41.906Z,101018.42
2018-07-22T23:36:47.050Z,101010.00
2018-07-22T23:39:52.551Z,101009.73
2018-07-22T23:42:57.741Z,101014.92
2018-07-22T23:46:02.918Z,101012.41
2018-07-22T23:49:09.117Z,101024.33
2018-07-22T23:52:15.935Z,101022.31
2018-07-22T23:55:21.107Z,101020.66
2018-07-22T23:58:27.283Z,101028.41
